createdAt,value
2023-03-19T00:02:15.459Z,59.52
2023-03-19T00:04:46.060Z,59.38
2023-03-19T00:07:14.593Z,59.66
2023-03-19T00:09:41.805Z,59.47
2023-03-19T00:12:10.249Z,59.32
2023-03-19T00:14:37.511Z,59.31
2023-03-19T00:17:04.518Z,59.25
2023-03-19T00:19:31.425Z,59.98
2023-03-19T00:21:59.630Z,59.63
2023-03-19T00:24:26.751Z,59.43
2023-03-19T00:26:53.674Z,59.68
2023-03-19T00:29:20.961Z,59.69
2023-03-19T00:31:47.868Z,60.04
2023-03-19T00:34:18.228Z,60.30
2023-03-19T00:36:46.436Z,60.53
2023-03-19T00:39:14.697Z,60.77
2023-03-19T00:41:41.794Z,61.19
2023-03-19T00:44:08.697Z,61.36
2023-03-19T00:46:35.678Z,61.50
2023-03-19T00:49:02.838Z,60.94
2023-03-19T00:51:29.787Z,61.21
2023-03-19T00:53:56.771Z,61.06
2023-03-19T00:56:24.969Z,61.13
2023-03-19T00:58:51.859Z,61.07
2023-03-19T01:01:19.015Z,60.94
2023-03-19T01:03:47.126Z,60.86
2023-03-19T01:06:14.607Z,60.92
2023-03-19T01:08:41.648Z,61.01
2023-03-19T01:11:12.862Z,61.02
2023-03-19T01:13:42.139Z,61.14
2023-03-19T01:16:09.932Z,61.08
2023-03-19T01:18:37.195Z,60.90
2023-03-19T01:21:05.281Z,60.93
2023-03-19T01:23:32.298Z,61.10
2023-03-19T01:25:59.257Z,60.96
2023-03-19T01:28:26.234Z,60.76
2023-03-19T01:31:00.678Z,60.60
2023-03-19T01:33:27.877Z,61.13
2023-03-19T01:35:55.570Z,61.04
2023-03-19T01:38:22.441Z,60.84
2023-03-19T01:40:50.134Z,60.80
2023-03-19T01:43:20.862Z,60.82
2023-03-19T01:45:51.580Z,61.20
2023-03-19T01:48:39.401Z,61.18
2023-03-19T01:51:09.702Z,61.24
2023-03-19T01:53:41.619Z,61.02
2023-03-19T01:56:14.240Z,60.89
2023-03-19T01:58:44.535Z,60.86
2023-03-19T02:01:11.558Z,60.76
2023-03-19T02:03:41.303Z,60.57
2023-03-19T02:06:12.164Z,60.61
2023-03-19T02:08:41.469Z,60.48
2023-03-19T02:11:09.746Z,60.54
2023-03-19T02:13:37.018Z,60.53
2023-03-19T02:16:04.591Z,60.54
2023-03-19T02:18:31.867Z,60.69
2023-03-19T02:21:07.407Z,60.64
2023-03-19T02:23:43.685Z,60.49
2023-03-19T02:26:14.884Z,60.98
2023-03-19T02:28:45.775Z,60.91
2023-03-19T02:31:13.956Z,60.87
2023-03-19T02:33:41.286Z,60.94
2023-03-19T02:36:16.348Z,61.12
2023-03-19T02:38:46.270Z,61.15
2023-03-19T02:41:14.659Z,61.20
2023-03-19T02:43:42.098Z,61.69
2023-03-19T02:46:13.221Z,61.80
2023-03-19T02:48:41.161Z,61.78
2023-03-19T02:51:08.625Z,61.87
2023-03-19T02:53:36.473Z,61.91
2023-03-19T02:56:03.570Z,61.90
2023-03-19T02:58:31.828Z,62.16
2023-03-19T03:00:58.790Z,62.46
2023-03-19T03:03:25.768Z,62.00
2023-03-19T03:05:52.672Z,62.15
2023-03-19T03:08:20.552Z,62.35
2023-03-19T03:10:47.486Z,61.72
2023-03-19T03:13:14.567Z,61.91
2023-03-19T03:15:42.783Z,62.05
2023-03-19T03:18:09.700Z,61.67
2023-03-19T03:20:36.801Z,61.71
2023-03-19T03:23:03.877Z,62.12
2023-03-19T03:25:30.987Z,62.07
2023-03-19T03:27:57.862Z,62.37
2023-03-19T03:30:25.011Z,61.91
2023-03-19T03:32:53.280Z,61.55
2023-03-19T03:35:22.430Z,61.48
2023-03-19T03:37:50.392Z,61.39
2023-03-19T03:40:18.194Z,61.79
2023-03-19T03:42:46.073Z,61.60
2023-03-19T03:45:13.300Z,61.63
2023-03-19T03:47:40.220Z,61.24
2023-03-19T03:50:10.980Z,60.92
2023-03-19T03:52:38.627Z,60.86
2023-03-19T03:55:07.495Z,60.90
2023-03-19T03:57:34.672Z,60.79
2023-03-19T04:00:01.838Z,61.02
2023-03-19T04:02:29.071Z,60.70
2023-03-19T04:04:56.174Z,60.74
2023-03-19T04:07:24.375Z,60.92
2023-03-19T04:09:51.295Z,60.67
2023-03-19T04:12:18.269Z,60.81
2023-03-19T04:14:45.310Z,60.84
2023-03-19T04:17:12.158Z,60.71
2023-03-19T04:19:39.069Z,60.72
2023-03-19T04:22:07.721Z,60.62
2023-03-19T04:24:36.503Z,60.71
2023-03-19T04:27:03.912Z,60.42
2023-03-19T04:29:30.956Z,60.54
2023-03-19T04:31:57.793Z,60.62
2023-03-19T04:34:24.809Z,60.52
2023-03-19T04:36:51.893Z,60.29
2023-03-19T04:39:19.549Z,60.32
2023-03-19T04:41:47.826Z,60.17
2023-03-19T04:44:14.694Z,60.36
2023-03-19T04:46:41.981Z,60.36
2023-03-19T04:49:09.189Z,60.30
2023-03-19T04:51:36.201Z,60.47
2023-03-19T04:54:03.768Z,60.47
2023-03-19T04:56:31.052Z,60.42
2023-03-19T04:58:59.272Z,60.47
2023-03-19T05:01:26.200Z,60.30
2023-03-19T05:03:53.181Z,60.27
2023-03-19T05:06:20.111Z,60.29
2023-03-19T05:08:47.359Z,60.20
2023-03-19T05:11:14.323Z,60.39
2023-03-19T05:13:41.295Z,60.37
2023-03-19T05:16:10.318Z,60.45
2023-03-19T05:18:40.079Z,60.62
2023-03-19T05:21:11.357Z,60.56
2023-03-19T05:23:38.852Z,60.40
2023-03-19T05:26:06.683Z,60.29
2023-03-19T05:28:33.687Z,60.14
2023-03-19T05:31:00.936Z,60.01
2023-03-19T05:33:29.183Z,60.06
2023-03-19T05:35:58.235Z,59.92
2023-03-19T05:38:25.416Z,59.93
2023-03-19T05:40:52.412Z,59.94
2023-03-19T05:43:19.353Z,59.83
2023-03-19T05:45:52.295Z,59.84
2023-03-19T05:48:19.368Z,60.11
2023-03-19T05:50:47.927Z,60.04
2023-03-19T05:53:15.156Z,60.41
2023-03-19T05:55:43.029Z,60.37
2023-03-19T05:58:10.009Z,60.48
2023-03-19T06:00:37.076Z,60.46
2023-03-19T06:03:04.369Z,60.37
2023-03-19T06:05:31.845Z,60.24
2023-03-19T06:08:00.480Z,60.02
2023-03-19T06:10:27.635Z,59.83
2023-03-19T06:12:54.488Z,59.78
2023-03-19T06:15:21.380Z,59.73
2023-03-19T06:17:48.507Z,59.96
2023-03-19T06:20:15.563Z,59.89
2023-03-19T06:22:43.533Z,59.78
2023-03-19T06:25:12.061Z,59.31
2023-03-19T06:27:38.989Z,59.35
2023-03-19T06:30:07.685Z,59.32
2023-03-19T06:32:34.914Z,59.19
2023-03-19T06:35:02.017Z,59.05
2023-03-19T06:37:29.082Z,59.06
2023-03-19T06:39:56.145Z,59.03
2023-03-19T06:42:24.649Z,58.67
2023-03-19T06:44:53.566Z,58.32
2023-03-19T06:47:20.737Z,58.65
2023-03-19T06:49:47.700Z,58.72
2023-03-19T06:52:14.694Z,58.48
2023-03-19T06:54:41.582Z,58.13
2023-03-19T06:57:08.813Z,58.34
2023-03-19T06:59:37.355Z,58.18
2023-03-19T07:02:04.304Z,58.32
2023-03-19T07:04:31.445Z,57.46
2023-03-19T07:06:58.344Z,57.08
2023-03-19T07:09:25.279Z,57.26
2023-03-19T07:11:52.150Z,57.23
2023-03-19T07:14:19.049Z,57.12
2023-03-19T07:16:47.329Z,57.03
2023-03-19T07:19:14.243Z,57.27
2023-03-19T07:21:41.693Z,57.43
2023-03-19T07:24:08.689Z,57.04
2023-03-19T07:26:35.589Z,56.81
2023-03-19T07:29:02.562Z,56.86
2023-03-19T07:31:29.466Z,57.01
2023-03-19T07:33:57.739Z,56.91
2023-03-19T07:36:24.688Z,57.07
2023-03-19T07:38:51.738Z,57.04
2023-03-19T07:41:18.993Z,57.35
2023-03-19T07:43:45.930Z,57.21
2023-03-19T07:46:13.810Z,57.18
2023-03-19T07:48:40.947Z,57.24
2023-03-19T07:51:09.540Z,57.03
2023-03-19T07:53:36.446Z,57.11
2023-03-19T07:56:03.616Z,56.68
2023-03-19T07:58:30.670Z,56.48
2023-03-19T08:00:57.581Z,56.19
2023-03-19T08:03:24.469Z,56.45
2023-03-19T08:05:52.427Z,56.40
2023-03-19T08:08:20.858Z,56.51
2023-03-19T08:10:48.448Z,56.46
2023-03-19T08:13:15.420Z,56.58
2023-03-19T08:15:42.465Z,56.48
2023-03-19T08:18:09.348Z,56.60
2023-03-19T08:20:36.598Z,56.16
2023-03-19T08:23:04.462Z,56.12
2023-03-19T08:25:32.818Z,55.86
2023-03-19T08:28:00.287Z,55.79
2023-03-19T08:30:27.479Z,55.52
2023-03-19T08:32:54.574Z,55.24
2023-03-19T08:35:21.595Z,55.01
2023-03-19T08:37:48.473Z,54.69
2023-03-19T08:40:15.653Z,54.59
2023-03-19T08:42:45.319Z,54.46
2023-03-19T08:45:15.649Z,54.72
2023-03-19T08:47:43.732Z,54.50
2023-03-19T08:50:11.546Z,54.54
2023-03-19T08:52:38.573Z,54.53
2023-03-19T08:55:07.325Z,54.21
2023-03-19T08:57:35.863Z,54.26
2023-03-19T09:00:08.184Z,54.02
2023-03-19T09:02:35.146Z,54.18
2023-03-19T09:05:02.025Z,54.30
2023-03-19T09:07:29.008Z,54.39
2023-03-19T09:09:56.058Z,54.30
2023-03-19T09:12:23.249Z,54.26
2023-03-19T09:14:50.252Z,53.78
2023-03-19T09:17:18.500Z,53.83
2023-03-19T09:19:45.469Z,52.98
2023-03-19T09:22:12.512Z,52.63
2023-03-19T09:24:40.689Z,51.70
2023-03-19T09:27:08.060Z,51.55
2023-03-19T09:29:35.125Z,51.39
2023-03-19T09:32:02.260Z,50.60
2023-03-19T09:34:30.548Z,47.10
2023-03-19T09:36:57.485Z,45.34
2023-03-19T09:39:24.459Z,44.08
2023-03-19T09:42:13.842Z,40.75
2023-03-19T09:44:45.364Z,40.75
2023-03-19T09:47:29.363Z,39.77
2023-03-19T09:50:02.101Z,41.02
2023-03-19T09:52:42.978Z,41.09
2023-03-19T09:55:42.697Z,40.62
2023-03-19T09:58:16.896Z,39.93
2023-03-19T10:00:49.046Z,40.12
2023-03-19T10:03:38.832Z,40.33
2023-03-19T10:06:27.364Z,39.83
2023-03-19T10:09:30.476Z,38.71
2023-03-19T10:12:22.714Z,39.00
2023-03-19T10:15:17.470Z,38.42
2023-03-19T10:17:56.713Z,38.78
2023-03-19T10:20:44.394Z,38.90
2023-03-19T10:23:39.579Z,37.79
2023-03-19T10:26:12.757Z,37.08
2023-03-19T10:28:44.276Z,35.54
2023-03-19T10:31:25.844Z,34.66
2023-03-19T10:34:08.455Z,33.49
2023-03-19T10:36:37.350Z,33.75
2023-03-19T10:39:07.743Z,32.85
2023-03-19T10:41:49.462Z,31.93
2023-03-19T10:44:29.450Z,32.83
2023-03-19T10:46:59.323Z,34.14
2023-03-19T10:49:26.584Z,34.77
2023-03-19T10:51:57.812Z,35.69
2023-03-19T10:54:28.885Z,36.53
2023-03-19T10:56:58.069Z,37.14
2023-03-19T10:59:33.300Z,37.64
2023-03-19T11:02:15.482Z,38.39
2023-03-19T11:04:42.386Z,38.72
2023-03-19T11:07:12.954Z,38.90
2023-03-19T11:09:45.773Z,39.39
2023-03-19T11:12:20.720Z,39.95
2023-03-19T11:14:49.818Z,40.10
2023-03-19T11:17:23.920Z,40.23
2023-03-19T11:19:55.612Z,40.47
2023-03-19T11:22:25.352Z,40.50
2023-03-19T11:24:56.632Z,41.01
2023-03-19T11:27:29.684Z,41.49
2023-03-19T11:29:56.871Z,41.82
2023-03-19T11:33:04.069Z,42.22
2023-03-19T11:35:38.930Z,42.44
2023-03-19T11:38:22.115Z,42.45
2023-03-19T11:41:06.154Z,42.58
2023-03-19T11:43:50.225Z,42.63
2023-03-19T11:46:46.373Z,42.93
2023-03-19T11:49:40.778Z,43.24
2023-03-19T11:52:18.234Z,43.28
2023-03-19T11:55:02.111Z,43.32
2023-03-19T11:57:54.592Z,43.69
2023-03-19T12:00:31.336Z,43.27
2023-03-19T12:04:01.458Z,43.55
2023-03-19T12:06:48.077Z,43.31
2023-03-19T12:09:29.630Z,43.50
2023-03-19T12:12:11.676Z,43.94
2023-03-19T12:15:02.157Z,44.05
2023-03-19T12:17:47.413Z,44.80
2023-03-19T12:20:30.550Z,44.69
2023-03-19T12:23:09.618Z,45.94
2023-03-19T12:26:04.528Z,47.13
2023-03-19T12:28:35.732Z,47.10
2023-03-19T12:31:39.690Z,48.56
2023-03-19T12:34:29.891Z,48.94
2023-03-19T12:37:12.987Z,49.14
2023-03-19T12:39:53.613Z,49.15
2023-03-19T12:42:27.620Z,49.41
2023-03-19T12:44:59.302Z,49.37
2023-03-19T12:47:35.241Z,48.91
2023-03-19T12:50:09.442Z,47.89
2023-03-19T12:52:40.041Z,45.20
2023-03-19T12:55:20.493Z,43.71
2023-03-19T12:57:51.850Z,43.08
2023-03-19T13:00:29.966Z,42.46
2023-03-19T13:03:07.422Z,42.25
2023-03-19T13:05:41.615Z,42.08
2023-03-19T13:08:21.936Z,42.51
2023-03-19T13:10:49.298Z,42.62
2023-03-19T13:13:36.477Z,42.16
2023-03-19T13:16:24.227Z,42.08
2023-03-19T13:19:07.760Z,41.57
2023-03-19T13:21:39.862Z,41.42
2023-03-19T13:24:19.873Z,41.79
2023-03-19T13:26:49.401Z,42.03
2023-03-19T13:29:21.353Z,40.85
2023-03-19T13:31:49.874Z,40.79
2023-03-19T13:34:27.586Z,40.49
2023-03-19T13:37:01.875Z,40.33
2023-03-19T13:39:32.690Z,40.57
2023-03-19T13:42:39.455Z,39.78
2023-03-19T13:45:31.538Z,39.52
2023-03-19T13:48:25.053Z,39.85
2023-03-19T13:51:01.757Z,40.46
2023-03-19T13:53:42.373Z,40.68
2023-03-19T13:56:30.412Z,40.76
2023-03-19T13:59:25.114Z,41.23
2023-03-19T14:01:52.233Z,41.06
2023-03-19T14:04:27.901Z,41.28
2023-03-19T14:07:08.969Z,40.98
2023-03-19T14:09:42.991Z,40.51
2023-03-19T14:12:20.799Z,40.60
2023-03-19T14:14:52.720Z,40.58
2023-03-19T14:17:24.641Z,39.82
2023-03-19T14:19:54.612Z,39.29
2023-03-19T14:22:35.692Z,38.68
2023-03-19T14:25:17.133Z,36.61
2023-03-19T14:27:47.988Z,36.44
2023-03-19T14:30:29.455Z,35.85
2023-03-19T14:33:02.790Z,36.03
2023-03-19T14:35:45.646Z,35.53
2023-03-19T14:38:27.921Z,35.30
2023-03-19T14:40:59.076Z,35.10
2023-03-19T14:43:52.713Z,34.77
2023-03-19T14:46:33.356Z,33.69
2023-03-19T14:49:53.127Z,33.23
2023-03-19T14:52:25.474Z,33.53
2023-03-19T14:54:59.147Z,33.48
2023-03-19T14:57:29.013Z,32.51
2023-03-19T14:59:57.197Z,32.32
2023-03-19T15:02:36.648Z,32.61
2023-03-19T15:05:08.318Z,32.59
2023-03-19T15:07:41.619Z,32.69
2023-03-19T15:10:17.960Z,32.55
2023-03-19T15:13:11.083Z,33.06
2023-03-19T15:16:06.886Z,33.68
2023-03-19T15:18:36.850Z,34.13
2023-03-19T15:21:05.832Z,34.61
2023-03-19T15:23:35.695Z,34.80
2023-03-19T15:26:08.455Z,34.74
2023-03-19T15:28:49.486Z,35.25
2023-03-19T15:31:33.417Z,35.60
2023-03-19T15:34:22.558Z,36.27
2023-03-19T15:36:55.809Z,36.24
2023-03-19T15:39:28.539Z,36.00
2023-03-19T15:41:57.460Z,35.95
2023-03-19T15:44:33.796Z,35.54
2023-03-19T15:47:06.422Z,34.64
2023-03-19T15:49:40.598Z,34.47
2023-03-19T15:52:12.423Z,34.53
2023-03-19T15:54:41.893Z,34.45
2023-03-19T15:57:14.536Z,33.61
2023-03-19T15:59:42.841Z,33.88
2023-03-19T16:02:22.470Z,32.73
2023-03-19T16:05:18.307Z,33.80
2023-03-19T16:07:43.529Z,33.77
2023-03-19T16:10:37.979Z,34.45
2023-03-19T16:13:30.772Z,34.81
2023-03-19T16:16:06.566Z,35.37
2023-03-19T16:18:47.123Z,35.87
2023-03-19T16:21:19.644Z,36.69
2023-03-19T16:23:55.411Z,36.83
2023-03-19T16:26:29.785Z,36.90
2023-03-19T16:29:11.103Z,37.72
2023-03-19T16:31:45.834Z,37.84
2023-03-19T16:34:32.102Z,38.50
2023-03-19T16:37:00.536Z,38.51
2023-03-19T16:39:34.682Z,38.51
2023-03-19T16:42:29.239Z,39.40
2023-03-19T16:44:56.545Z,39.72
2023-03-19T16:47:24.127Z,39.69
2023-03-19T16:49:51.134Z,39.92
2023-03-19T16:52:22.431Z,40.26
2023-03-19T16:54:50.304Z,40.21
2023-03-19T16:57:19.575Z,40.42
2023-03-19T16:59:47.599Z,40.20
2023-03-19T17:02:17.480Z,40.31
2023-03-19T17:04:45.759Z,40.24
2023-03-19T17:07:13.513Z,40.85
2023-03-19T17:09:40.619Z,40.55
2023-03-19T17:12:15.299Z,41.04
2023-03-19T17:14:43.785Z,40.96
2023-03-19T17:17:19.835Z,40.98
2023-03-19T17:19:47.588Z,41.60
2023-03-19T17:22:14.569Z,41.63
2023-03-19T17:24:42.313Z,41.93
2023-03-19T17:27:10.575Z,42.15
2023-03-19T17:29:37.548Z,42.05
2023-03-19T17:32:17.124Z,42.37
2023-03-19T17:34:45.135Z,42.17
2023-03-19T17:37:16.648Z,42.25
2023-03-19T17:39:45.649Z,42.64
2023-03-19T17:42:19.690Z,43.12
2023-03-19T17:44:47.387Z,42.89
2023-03-19T17:47:17.820Z,43.01
2023-03-19T17:49:46.122Z,43.51
2023-03-19T17:52:16.073Z,43.51
2023-03-19T17:54:45.256Z,43.33
2023-03-19T17:57:15.234Z,43.70
2023-03-19T17:59:42.739Z,43.62
2023-03-19T18:02:26.422Z,43.58
2023-03-19T18:04:54.141Z,43.88
2023-03-19T18:07:21.073Z,44.39
2023-03-19T18:09:48.192Z,44.11
2023-03-19T18:12:15.775Z,44.23
2023-03-19T18:14:42.748Z,44.21
2023-03-19T18:17:15.734Z,44.15
2023-03-19T18:19:49.063Z,44.10
2023-03-19T18:22:19.057Z,44.17
2023-03-19T18:24:46.649Z,44.44
2023-03-19T18:27:14.549Z,44.63
2023-03-19T18:29:41.499Z,45.14
2023-03-19T18:32:15.526Z,45.12
2023-03-19T18:34:43.794Z,45.06
2023-03-19T18:37:16.853Z,45.22
2023-03-19T18:39:43.756Z,45.24
2023-03-19T18:42:12.726Z,45.32
2023-03-19T18:44:40.480Z,45.47
2023-03-19T18:47:14.505Z,45.56
2023-03-19T18:49:44.560Z,45.67
2023-03-19T18:52:15.838Z,45.79
2023-03-19T18:54:44.765Z,45.80
2023-03-19T18:57:14.526Z,46.39
2023-03-19T18:59:42.459Z,46.36
2023-03-19T19:02:28.433Z,46.54
2023-03-19T19:04:56.827Z,46.71
2023-03-19T19:07:23.941Z,46.83
2023-03-19T19:09:50.982Z,46.87
2023-03-19T19:12:18.850Z,46.93
2023-03-19T19:14:47.200Z,47.26
2023-03-19T19:17:17.469Z,47.72
2023-03-19T19:19:45.253Z,48.20
2023-03-19T19:22:16.908Z,48.23
2023-03-19T19:24:44.856Z,48.59
2023-03-19T19:27:17.113Z,48.20
2023-03-19T19:29:46.178Z,48.42
2023-03-19T19:32:24.507Z,48.52
2023-03-19T19:34:52.558Z,48.45
2023-03-19T19:37:23.069Z,48.23
2023-03-19T19:39:51.133Z,48.19
2023-03-19T19:42:21.836Z,48.03
2023-03-19T19:44:53.942Z,47.75
2023-03-19T19:47:21.660Z,48.13
2023-03-19T19:49:49.052Z,48.14
2023-03-19T19:52:18.802Z,48.33
2023-03-19T19:54:47.590Z,48.29
2023-03-19T19:57:18.711Z,48.46
2023-03-19T19:59:46.155Z,48.60
2023-03-19T20:02:21.560Z,48.84
2023-03-19T20:04:49.434Z,49.84
2023-03-19T20:07:16.379Z,50.14
2023-03-19T20:09:43.525Z,50.16
2023-03-19T20:12:21.662Z,50.69
2023-03-19T20:14:50.547Z,50.80
2023-03-19T20:17:21.010Z,50.84
2023-03-19T20:19:48.249Z,51.36
2023-03-19T20:22:16.228Z,51.50
2023-03-19T20:24:43.776Z,51.79
2023-03-19T20:27:20.098Z,51.63
2023-03-19T20:29:47.722Z,51.92
2023-03-19T20:32:28.752Z,52.23
2023-03-19T20:34:55.808Z,51.90
2023-03-19T20:37:23.048Z,52.25
2023-03-19T20:39:49.987Z,52.62
2023-03-19T20:42:19.277Z,52.20
2023-03-19T20:44:47.563Z,52.55
2023-03-19T20:47:17.466Z,52.69
2023-03-19T20:49:45.085Z,52.99
2023-03-19T20:52:12.650Z,52.72
2023-03-19T20:54:40.968Z,52.61
2023-03-19T20:57:13.237Z,52.83
2023-03-19T20:59:44.286Z,53.18
2023-03-19T21:02:16.986Z,53.05
2023-03-19T21:04:44.210Z,53.12
2023-03-19T21:07:28.659Z,53.32
2023-03-19T21:09:56.451Z,53.30
2023-03-19T21:12:29.329Z,53.76
2023-03-19T21:15:00.264Z,53.41
2023-03-19T21:17:28.568Z,53.41
2023-03-19T21:19:56.785Z,54.00
2023-03-19T21:22:28.626Z,54.25
2023-03-19T21:25:04.152Z,54.13
2023-03-19T21:27:35.632Z,54.62
2023-03-19T21:30:06.788Z,54.97
2023-03-19T21:32:33.974Z,55.07
2023-03-19T21:35:01.022Z,54.85
2023-03-19T21:37:27.915Z,54.79
2023-03-19T21:39:54.740Z,55.07
2023-03-19T21:42:23.262Z,54.76
2023-03-19T21:44:58.744Z,54.70
2023-03-19T21:47:27.413Z,55.13
2023-03-19T21:49:54.845Z,54.69
2023-03-19T21:52:21.881Z,54.93
2023-03-19T21:54:49.035Z,55.10
2023-03-19T21:57:17.262Z,54.83
2023-03-19T21:59:45.257Z,54.54
2023-03-19T22:02:41.588Z,54.55
2023-03-19T22:05:23.044Z,54.54
2023-03-19T22:07:50.645Z,54.30
2023-03-19T22:10:19.573Z,54.47
2023-03-19T22:12:47.097Z,54.35
2023-03-19T22:15:23.190Z,54.40
2023-03-19T22:17:51.512Z,54.42
2023-03-19T22:20:21.937Z,54.28
2023-03-19T22:22:49.543Z,54.23
2023-03-19T22:25:18.286Z,54.22
2023-03-19T22:27:49.197Z,54.63
2023-03-19T22:30:33.072Z,54.24
2023-03-19T22:33:10.358Z,54.28
2023-03-19T22:35:37.478Z,54.58
2023-03-19T22:38:04.550Z,54.09
2023-03-19T22:40:31.909Z,54.39
2023-03-19T22:42:58.862Z,54.22
2023-03-19T22:45:30.499Z,54.20
2023-03-19T22:47:59.627Z,54.25
2023-03-19T22:50:31.752Z,54.01
2023-03-19T22:52:59.171Z,54.62
2023-03-19T22:55:26.169Z,54.04
2023-03-19T22:57:53.111Z,54.20
2023-03-19T23:00:23.721Z,54.30
2023-03-19T23:02:57.646Z,53.90
2023-03-19T23:05:32.367Z,54.45
2023-03-19T23:07:59.385Z,54.21
2023-03-19T23:10:29.731Z,54.02
2023-03-19T23:12:57.101Z,54.25
2023-03-19T23:15:28.405Z,54.42
2023-03-19T23:17:59.063Z,54.08
2023-03-19T23:20:32.475Z,54.31
2023-03-19T23:22:59.349Z,54.25
2023-03-19T23:25:29.036Z,54.22
2023-03-19T23:28:01.249Z,54.46
2023-03-19T23:30:31.457Z,53.86
2023-03-19T23:33:01.891Z,54.38
2023-03-19T23:35:31.164Z,54.04
2023-03-19T23:37:58.846Z,54.35
2023-03-19T23:40:33.045Z,53.99
2023-03-19T23:43:04.014Z,54.20
2023-03-19T23:45:38.289Z,54.10
2023-03-19T23:48:12.486Z,54.02
2023-03-19T23:50:40.792Z,54.03
2023-03-19T23:53:18.545Z,53.70
2023-03-19T23:55:47.942Z,53.95
2023-03-19T23:58:15.687Z,53.91
